createdAt,value
2023-05-12T00:02:02.234Z,66.85
2023-05-12T00:04:30.349Z,66.72
2023-05-12T00:06:59.770Z,58.55
2023-05-12T00:09:27.819Z,53.65
2023-05-12T00:11:55.893Z,60.60
2023-05-12T00:14:24.023Z,65.70
2023-05-12T00:16:52.540Z,72.80
2023-05-12T00:19:21.176Z,61.88
2023-05-12T00:21:49.191Z,71.13
2023-05-12T00:24:18.577Z,68.35
2023-05-12T00:26:46.642Z,70.15
2023-05-12T00:29:14.657Z,64.15
2023-05-12T00:31:42.717Z,64.05
2023-05-12T00:34:10.839Z,73.32
2023-05-12T00:36:38.907Z,68.82
2023-05-12T00:39:06.932Z,68.50
2023-05-12T00:41:36.710Z,69.43
2023-05-12T00:44:04.846Z,72.03
2023-05-12T00:46:33.034Z,70.50
2023-05-12T00:49:01.111Z,76.82
2023-05-12T00:51:29.688Z,58.03
2023-05-12T00:53:58.234Z,63.50
2023-05-12T00:56:26.908Z,65.38
2023-05-12T00:58:56.473Z,69.68
2023-05-12T01:01:24.711Z,64.30
2023-05-12T01:03:55.465Z,71.88
2023-05-12T01:06:28.966Z,58.00
2023-05-12T01:08:58.623Z,65.88
2023-05-12T01:11:26.784Z,80.63
2023-05-12T01:13:56.217Z,72.45
2023-05-12T01:16:27.250Z,66.63
2023-05-12T01:18:57.379Z,67.65
2023-05-12T01:21:25.738Z,65.95
2023-05-12T01:23:59.734Z,66.22
2023-05-12T01:26:32.477Z,72.68
2023-05-12T01:29:03.367Z,78.18
2023-05-12T01:31:32.224Z,77.55
2023-05-12T01:34:00.845Z,74.85
2023-05-12T01:36:29.276Z,76.45
2023-05-12T01:38:57.610Z,73.90
2023-05-12T01:41:25.641Z,75.40
2023-05-12T01:43:55.197Z,88.40
2023-05-12T01:46:23.328Z,82.15
2023-05-12T01:48:52.202Z,72.63
2023-05-12T01:51:20.225Z,86.78
2023-05-12T01:53:48.770Z,80.95
2023-05-12T01:56:17.069Z,82.97
2023-05-12T01:58:45.309Z,78.50
2023-05-12T02:01:14.810Z,97.18
2023-05-12T02:03:44.138Z,78.13
2023-05-12T02:06:14.933Z,82.22
2023-05-12T02:08:43.065Z,87.05
2023-05-12T02:11:11.166Z,78.28
2023-05-12T02:13:39.757Z,83.30
2023-05-12T02:16:08.798Z,79.63
2023-05-12T02:18:38.456Z,82.22
2023-05-12T02:21:08.607Z,73.82
2023-05-12T02:23:37.146Z,80.50
2023-05-12T02:26:05.204Z,102.53
2023-05-12T02:28:33.923Z,108.68
2023-05-12T02:31:01.951Z,98.22
2023-05-12T02:33:31.437Z,129.32
2023-05-12T02:36:00.985Z,83.97
2023-05-12T02:38:29.375Z,111.50
2023-05-12T02:40:57.384Z,122.78
2023-05-12T02:43:26.884Z,124.15
2023-05-12T02:45:55.863Z,149.85
2023-05-12T02:48:23.944Z,167.45
2023-05-12T02:50:53.750Z,116.25
2023-05-12T02:53:23.233Z,109.10
2023-05-12T02:55:51.595Z,133.98
2023-05-12T02:58:19.640Z,152.73
2023-05-12T03:00:54.152Z,116.43
2023-05-12T03:03:28.294Z,117.28
2023-05-12T03:05:57.303Z,140.43
2023-05-12T03:08:26.848Z,159.48
2023-05-12T03:10:54.915Z,97.93
2023-05-12T03:13:23.492Z,129.10
2023-05-12T03:15:51.978Z,126.07
2023-05-12T03:18:20.158Z,134.43
2023-05-12T03:20:48.385Z,121.82
2023-05-12T03:23:16.900Z,152.48
2023-05-12T03:25:46.772Z,149.38
2023-05-12T03:28:14.896Z,164.48
2023-05-12T03:30:42.996Z,156.35
2023-05-12T03:33:11.067Z,149.00
2023-05-12T03:35:39.143Z,144.20
2023-05-12T03:38:07.284Z,146.75
2023-05-12T03:40:35.305Z,145.32
2023-05-12T03:43:05.277Z,152.30
2023-05-12T03:45:33.376Z,165.13
2023-05-12T03:48:01.422Z,105.18
2023-05-12T03:50:30.141Z,105.18
2023-05-12T03:52:58.160Z,169.73
2023-05-12T03:55:26.276Z,167.93
2023-05-12T03:57:54.294Z,254.45
2023-05-12T04:00:24.082Z,233.00
2023-05-12T04:02:52.191Z,173.85
2023-05-12T04:05:20.786Z,224.32
2023-05-12T04:07:48.824Z,276.50
2023-05-12T04:10:17.272Z,131.52
2023-05-12T04:12:45.330Z,325.75
2023-05-12T04:15:14.846Z,383.75
2023-05-12T04:17:44.288Z,410.45
2023-05-12T04:20:13.805Z,332.75
2023-05-12T04:22:41.912Z,298.50
2023-05-12T04:25:10.992Z,118.10
2023-05-12T04:27:40.372Z,181.70
2023-05-12T04:30:09.703Z,205.73
2023-05-12T04:32:40.038Z,129.43
2023-05-12T04:35:10.619Z,96.25
2023-05-12T04:37:38.720Z,159.68
2023-05-12T04:40:08.931Z,167.75
2023-05-12T04:42:37.553Z,161.95
2023-05-12T04:45:07.666Z,162.93
2023-05-12T04:47:36.816Z,144.25
2023-05-12T04:50:05.870Z,114.13
2023-05-12T04:52:35.758Z,187.80
2023-05-12T04:55:04.014Z,113.28
2023-05-12T04:57:32.333Z,139.63
2023-05-12T05:00:04.855Z,118.90
2023-05-12T05:02:33.815Z,182.40
2023-05-12T05:05:02.124Z,125.53
2023-05-12T05:07:32.055Z,125.10
2023-05-12T05:10:01.797Z,128.52
2023-05-12T05:12:31.470Z,158.65
2023-05-12T05:14:59.850Z,127.80
2023-05-12T05:17:28.174Z,147.48
2023-05-12T05:19:59.298Z,115.20
2023-05-12T05:22:31.667Z,112.90
2023-05-12T05:25:06.513Z,98.78
2023-05-12T05:27:34.948Z,103.25
2023-05-12T05:30:03.362Z,102.32
2023-05-12T05:32:33.259Z,103.68
2023-05-12T05:35:01.928Z,118.47
2023-05-12T05:37:30.992Z,135.57
2023-05-12T05:39:59.752Z,133.82
2023-05-12T05:42:29.456Z,122.90
2023-05-12T05:44:57.807Z,123.13
2023-05-12T05:47:28.227Z,103.32
2023-05-12T05:49:56.648Z,131.85
2023-05-12T05:52:24.937Z,119.63
2023-05-12T05:54:53.324Z,94.47
2023-05-12T05:57:22.979Z,110.43
2023-05-12T05:59:53.048Z,102.13
2023-05-12T06:02:23.316Z,117.40
2023-05-12T06:04:52.579Z,107.97
2023-05-12T06:07:22.254Z,97.60
2023-05-12T06:09:50.836Z,114.85
2023-05-12T06:12:19.067Z,86.72
2023-05-12T06:14:51.215Z,90.38
2023-05-12T06:17:21.292Z,87.22
2023-05-12T06:19:50.666Z,94.03
2023-05-12T06:22:19.528Z,89.88
2023-05-12T06:24:47.987Z,93.32
2023-05-12T06:27:16.284Z,100.78
2023-05-12T06:29:44.592Z,81.97
2023-05-12T06:32:12.948Z,85.28
2023-05-12T06:34:42.648Z,86.50
2023-05-12T06:37:11.046Z,83.00
2023-05-12T06:39:39.394Z,72.88
2023-05-12T06:42:08.031Z,68.20
2023-05-12T06:44:42.720Z,74.82
2023-05-12T06:47:11.175Z,70.18
2023-05-12T06:49:39.436Z,71.07
2023-05-12T06:52:09.470Z,70.50
2023-05-12T06:54:37.834Z,62.10
2023-05-12T06:57:06.429Z,63.03
2023-05-12T06:59:34.715Z,64.13
2023-05-12T07:02:03.094Z,61.08
2023-05-12T07:04:31.526Z,57.40
2023-05-12T07:06:59.804Z,58.58
2023-05-12T07:09:29.571Z,63.08
2023-05-12T07:11:57.890Z,56.53
2023-05-12T07:14:26.308Z,58.97
2023-05-12T07:16:54.645Z,55.63
2023-05-12T07:19:22.911Z,54.40
2023-05-12T07:21:51.257Z,53.35
2023-05-12T07:24:19.572Z,55.67
2023-05-12T07:26:49.394Z,50.35
2023-05-12T07:29:17.742Z,52.25
2023-05-12T07:31:46.282Z,48.80
2023-05-12T07:34:15.900Z,45.78
2023-05-12T07:36:46.127Z,46.47
2023-05-12T07:39:19.141Z,45.42
2023-05-12T07:41:48.850Z,42.80
2023-05-12T07:44:17.369Z,43.00
2023-05-12T07:46:45.890Z,40.95
2023-05-12T07:49:14.247Z,44.00
2023-05-12T07:51:42.618Z,39.10
2023-05-12T07:54:10.905Z,39.72
2023-05-12T07:56:39.185Z,40.55
2023-05-12T07:59:08.925Z,39.95
2023-05-12T08:01:37.185Z,37.78
2023-05-12T08:04:06.769Z,35.47
2023-05-12T08:06:35.131Z,33.90
2023-05-12T08:09:03.543Z,35.20
2023-05-12T08:11:31.915Z,32.55
2023-05-12T08:14:00.413Z,31.58
2023-05-12T08:16:30.386Z,29.60
2023-05-12T08:18:59.922Z,29.33
2023-05-12T08:21:28.757Z,29.48
2023-05-12T08:23:57.471Z,29.85
2023-05-12T08:26:26.060Z,29.42
2023-05-12T08:28:54.384Z,29.27
2023-05-12T08:31:22.720Z,28.58
2023-05-12T08:34:08.580Z,28.52
2023-05-12T08:36:37.932Z,28.42
2023-05-12T08:39:06.758Z,26.02
2023-05-12T08:41:44.541Z,28.67
2023-05-12T08:44:13.838Z,28.40
2023-05-12T08:46:43.347Z,26.67
2023-05-12T08:49:16.600Z,27.63
2023-05-12T08:51:54.423Z,26.35
2023-05-12T08:54:27.732Z,25.25
2023-05-12T08:59:27.553Z,25.58
2023-05-12T09:01:57.171Z,25.52
2023-05-12T09:04:26.880Z,22.73
2023-05-12T09:06:56.044Z,21.13
2023-05-12T09:09:26.529Z,23.45
2023-05-12T09:11:58.672Z,21.80
2023-05-12T09:14:27.741Z,21.42
2023-05-12T09:17:01.655Z,20.83
2023-05-12T09:19:31.552Z,20.15
2023-05-12T09:22:00.293Z,18.85
2023-05-12T09:24:38.541Z,17.98
2023-05-12T09:27:07.711Z,19.52
2023-05-12T09:29:45.072Z,21.30
2023-05-12T09:32:16.533Z,19.30
2023-05-12T09:34:46.327Z,17.60
2023-05-12T09:37:15.957Z,15.95
2023-05-12T09:39:45.908Z,17.75
2023-05-12T09:42:14.322Z,17.85
2023-05-12T09:44:42.809Z,19.30
2023-05-12T09:47:11.393Z,20.00
2023-05-12T09:49:39.720Z,18.23
2023-05-12T09:52:09.406Z,20.80
2023-05-12T09:54:41.164Z,17.95
2023-05-12T09:57:13.080Z,14.52
2023-05-12T09:59:44.072Z,16.70
2023-05-12T10:02:16.442Z,15.20
2023-05-12T10:04:48.664Z,15.27
2023-05-12T10:07:23.178Z,14.88
2023-05-12T10:09:52.894Z,15.18
2023-05-12T10:12:21.304Z,15.18
2023-05-12T10:14:50.374Z,15.63
2023-05-12T10:17:20.783Z,15.40
2023-05-12T10:19:50.245Z,16.45
2023-05-12T10:22:21.342Z,12.40
2023-05-12T10:24:50.825Z,14.05
2023-05-12T10:27:20.761Z,13.23
2023-05-12T10:29:50.745Z,14.45
2023-05-12T10:32:19.844Z,14.10
2023-05-12T10:34:48.317Z,12.95
2023-05-12T10:37:16.744Z,12.77
2023-05-12T10:39:52.330Z,11.73
2023-05-12T10:42:25.646Z,11.50
2023-05-12T10:44:54.901Z,11.90
2023-05-12T10:47:26.923Z,12.15
2023-05-12T10:49:59.059Z,15.25
2023-05-12T10:52:27.359Z,11.20
2023-05-12T10:55:04.400Z,12.10
2023-05-12T10:57:33.923Z,10.38
2023-05-12T11:00:04.040Z,12.98
2023-05-12T11:02:35.906Z,9.52
2023-05-12T11:05:13.106Z,16.13
2023-05-12T11:07:41.997Z,8.95
2023-05-12T11:12:43.716Z,11.52
2023-05-12T11:15:13.560Z,9.20
2023-05-12T11:17:42.712Z,10.65
2023-05-12T11:20:11.355Z,8.80
2023-05-12T11:22:42.865Z,8.90
2023-05-12T11:25:13.521Z,7.68
2023-05-12T11:27:47.710Z,12.48
2023-05-12T11:30:16.177Z,10.05
2023-05-12T11:32:44.938Z,10.65
2023-05-12T11:35:14.476Z,10.50
2023-05-12T11:37:44.317Z,8.32
2023-05-12T11:40:18.775Z,6.93
2023-05-12T11:42:51.709Z,5.93
2023-05-12T11:45:28.795Z,10.00
2023-05-12T11:48:08.848Z,9.15
2023-05-12T11:50:39.985Z,16.05
2023-05-12T11:53:12.377Z,11.13
2023-05-12T11:55:50.160Z,7.10
2023-05-12T11:58:25.998Z,9.45
2023-05-12T12:00:55.278Z,11.02
2023-05-12T12:03:24.106Z,9.23
2023-05-12T12:06:03.665Z,6.28
2023-05-12T12:08:32.590Z,8.80
2023-05-12T12:11:04.372Z,6.97
2023-05-12T12:13:32.471Z,8.00
2023-05-12T12:16:00.697Z,8.65
2023-05-12T12:18:29.262Z,70.82
2023-05-12T12:20:58.781Z,9.30
2023-05-12T12:23:27.113Z,9.93
2023-05-12T12:25:55.470Z,8.07
2023-05-12T12:28:25.227Z,8.13
2023-05-12T12:30:53.865Z,10.73
2023-05-12T12:33:22.326Z,8.90
2023-05-12T12:35:50.895Z,8.73
2023-05-12T12:38:19.109Z,7.22
2023-05-12T12:40:47.630Z,5.78
2023-05-12T12:43:15.934Z,7.75
2023-05-12T12:45:45.480Z,9.38
2023-05-12T12:48:13.805Z,10.32
2023-05-12T12:50:42.444Z,9.75
2023-05-12T12:53:11.293Z,8.48
2023-05-12T12:55:39.624Z,10.77
2023-05-12T12:58:07.843Z,9.15
2023-05-12T13:00:35.955Z,8.68
2023-05-12T13:03:06.586Z,7.70
2023-05-12T13:05:35.123Z,7.20
2023-05-12T13:08:03.377Z,9.63
2023-05-12T13:10:31.575Z,8.55
2023-05-12T13:13:00.830Z,8.40
2023-05-12T13:15:29.474Z,8.63
2023-05-12T13:17:58.298Z,8.57
2023-05-12T13:20:28.820Z,10.35
2023-05-12T13:22:57.033Z,8.35
2023-05-12T13:25:25.190Z,9.98
2023-05-12T13:27:53.429Z,10.77
2023-05-12T13:30:22.711Z,7.15
2023-05-12T13:32:50.898Z,9.15
2023-05-12T13:35:19.324Z,8.55
2023-05-12T13:37:49.441Z,7.03
2023-05-12T13:40:17.668Z,12.13
2023-05-12T13:42:45.848Z,9.73
2023-05-12T13:45:13.960Z,8.60
2023-05-12T13:47:42.082Z,6.50
2023-05-12T13:50:10.720Z,10.45
2023-05-12T13:52:39.149Z,8.00
2023-05-12T13:55:09.583Z,9.73
2023-05-12T13:57:37.620Z,12.13
2023-05-12T14:00:08.426Z,11.35
2023-05-12T14:02:45.898Z,10.80
2023-05-12T14:05:14.035Z,8.95
2023-05-12T14:07:42.611Z,12.52
2023-05-12T14:10:12.722Z,17.02
2023-05-12T14:12:42.417Z,10.32
2023-05-12T14:15:22.041Z,9.23
2023-05-12T14:17:54.652Z,13.38
2023-05-12T14:20:22.721Z,10.25
2023-05-12T14:22:50.966Z,10.63
2023-05-12T14:25:20.652Z,10.40
2023-05-12T14:27:49.192Z,9.88
2023-05-12T14:30:17.959Z,9.95
2023-05-12T14:32:46.119Z,8.82
2023-05-12T14:35:14.372Z,10.07
2023-05-12T14:37:42.519Z,11.70
2023-05-12T14:40:12.102Z,13.02
2023-05-12T14:42:42.467Z,9.70
2023-05-12T14:45:11.417Z,10.80
2023-05-12T14:47:39.607Z,10.70
2023-05-12T14:50:08.591Z,10.35
2023-05-12T14:52:38.491Z,11.68
2023-05-12T14:55:11.524Z,10.55
2023-05-12T14:57:41.395Z,10.90
2023-05-12T15:00:12.320Z,9.88
2023-05-12T15:02:41.296Z,8.10
2023-05-12T15:05:11.303Z,8.35
2023-05-12T15:07:39.435Z,8.65
2023-05-12T15:10:08.223Z,9.27
2023-05-12T15:12:36.527Z,11.20
2023-05-12T15:15:08.835Z,7.75
2023-05-12T15:17:37.697Z,8.25
2023-05-12T15:20:06.951Z,9.93
2023-05-12T15:22:35.107Z,8.13
2023-05-12T15:25:04.503Z,8.10
2023-05-12T15:27:33.691Z,10.85
2023-05-12T15:30:01.948Z,8.93
2023-05-12T15:32:31.719Z,7.47
2023-05-12T15:34:59.922Z,9.00
2023-05-12T15:37:30.983Z,8.18
2023-05-12T15:39:59.428Z,11.25
2023-05-12T15:42:32.836Z,10.13
2023-05-12T15:45:04.443Z,9.18
2023-05-12T15:47:36.721Z,8.63
2023-05-12T15:50:05.434Z,9.32
2023-05-12T15:52:38.036Z,11.18
2023-05-12T15:55:08.875Z,11.68
2023-05-12T15:57:37.262Z,9.25
2023-05-12T16:00:12.756Z,9.48
2023-05-12T16:02:45.589Z,8.70
2023-05-12T16:05:27.128Z,8.50
2023-05-12T16:07:59.908Z,8.70
2023-05-12T16:10:28.447Z,8.93
2023-05-12T16:12:57.282Z,12.52
2023-05-12T16:15:41.231Z,12.88
2023-05-12T16:18:33.263Z,11.45
2023-05-12T16:21:57.850Z,10.70
2023-05-12T16:24:34.207Z,12.30
2023-05-12T16:27:11.561Z,14.85
2023-05-12T16:29:39.862Z,10.30
2023-05-12T16:32:19.961Z,11.02
2023-05-12T16:34:57.182Z,13.52
2023-05-12T16:37:28.565Z,11.43
2023-05-12T16:40:08.341Z,12.73
2023-05-12T16:42:57.036Z,10.98
2023-05-12T16:45:27.342Z,9.40
2023-05-12T16:47:56.736Z,9.07
2023-05-12T16:50:30.986Z,11.52
2023-05-12T16:52:59.160Z,14.88
2023-05-12T16:55:29.419Z,13.07
2023-05-12T16:58:03.517Z,8.60
2023-05-12T17:00:34.958Z,12.23
2023-05-12T17:03:10.017Z,9.35
2023-05-12T17:05:47.755Z,9.80
2023-05-12T17:08:23.330Z,9.48
2023-05-12T17:10:52.438Z,8.18
2023-05-12T17:13:21.741Z,12.82
2023-05-12T17:15:52.396Z,8.40
2023-05-12T17:18:21.491Z,9.98
2023-05-12T17:20:51.147Z,8.13
2023-05-12T17:23:21.336Z,9.50
2023-05-12T17:25:51.619Z,10.80
2023-05-12T17:28:20.409Z,12.05
2023-05-12T17:30:56.965Z,9.40
2023-05-12T17:33:25.612Z,6.53
2023-05-12T17:36:10.714Z,9.60
2023-05-12T17:38:44.596Z,9.20
2023-05-12T17:41:16.334Z,9.15
2023-05-12T17:43:51.445Z,8.77
2023-05-12T17:46:20.074Z,9.18
2023-05-12T17:48:48.348Z,8.20
2023-05-12T17:51:17.175Z,9.15
2023-05-12T17:53:47.745Z,11.38
2023-05-12T17:56:16.684Z,6.72
2023-05-12T17:58:45.160Z,8.75
2023-05-12T18:01:13.554Z,7.35
2023-05-12T18:03:41.963Z,7.18
2023-05-12T18:06:12.857Z,6.82
2023-05-12T18:08:41.374Z,9.82
2023-05-12T18:11:11.021Z,7.53
2023-05-12T18:13:40.363Z,8.75
2023-05-12T18:16:21.307Z,13.05
2023-05-12T18:18:56.067Z,7.95
2023-05-12T18:21:24.265Z,10.00
2023-05-12T18:23:52.438Z,12.20
2023-05-12T18:26:21.949Z,10.70
2023-05-12T18:28:50.107Z,9.25
2023-05-12T18:31:19.451Z,11.05
2023-05-12T18:33:48.432Z,8.82
2023-05-12T18:36:17.154Z,8.48
2023-05-12T18:38:45.765Z,8.98
2023-05-12T18:45:09.103Z,11.18
2023-05-12T18:47:58.748Z,8.15
2023-05-12T18:50:29.062Z,11.80
2023-05-12T18:52:57.766Z,8.65
2023-05-12T18:55:26.306Z,8.70
2023-05-12T18:57:54.513Z,10.02
2023-05-12T19:00:27.654Z,10.00
2023-05-12T19:02:55.948Z,8.30
2023-05-12T19:09:13.793Z,8.88
2023-05-12T19:11:42.542Z,12.02
2023-05-12T19:14:10.777Z,10.52
2023-05-12T19:16:42.417Z,12.52
2023-05-12T19:19:10.926Z,9.40
2023-05-12T19:21:47.500Z,10.27
2023-05-12T19:24:16.218Z,13.98
2023-05-12T19:26:50.598Z,12.20
2023-05-12T19:29:22.367Z,13.13
2023-05-12T19:32:12.426Z,11.35
2023-05-12T19:34:40.748Z,11.05
2023-05-12T19:37:09.431Z,12.55
2023-05-12T19:39:37.756Z,10.63
2023-05-12T19:42:06.519Z,10.02
2023-05-12T19:44:34.803Z,12.55
2023-05-12T19:50:20.299Z,9.68
2023-05-12T19:52:48.657Z,12.27
2023-05-12T19:55:16.981Z,9.90
2023-05-12T19:57:45.251Z,10.23
2023-05-12T20:00:14.850Z,10.52
2023-05-12T20:02:45.832Z,12.73
2023-05-12T20:05:14.180Z,11.05
2023-05-12T20:07:42.700Z,10.00
2023-05-12T20:10:12.096Z,12.23
2023-05-12T20:12:40.645Z,11.82
2023-05-12T20:15:10.024Z,14.30
2023-05-12T20:17:38.248Z,11.18
2023-05-12T20:20:11.430Z,12.48
2023-05-12T20:22:39.785Z,12.30
2023-05-12T20:25:08.487Z,14.02
2023-05-12T20:27:37.056Z,8.40
2023-05-12T20:30:12.317Z,10.98
2023-05-12T20:32:41.373Z,11.48
2023-05-12T20:35:11.291Z,13.00
2023-05-12T20:37:40.705Z,11.88
2023-05-12T20:40:10.875Z,12.93
2023-05-12T20:42:41.817Z,13.32
2023-05-12T20:45:13.614Z,14.88
2023-05-12T20:47:42.153Z,12.27
2023-05-12T20:50:12.696Z,13.35
2023-05-12T20:52:42.433Z,13.52
2023-05-12T20:55:12.752Z,11.23
2023-05-12T20:57:41.401Z,12.25
2023-05-12T21:00:11.569Z,11.82
2023-05-12T21:02:40.778Z,12.38
2023-05-12T21:05:10.419Z,13.35
2023-05-12T21:07:41.227Z,13.63
2023-05-12T21:10:10.489Z,13.07
2023-05-12T21:12:40.009Z,13.40
2023-05-12T21:15:11.807Z,12.48
2023-05-12T21:17:41.146Z,13.32
2023-05-12T21:20:11.912Z,14.63
2023-05-12T21:22:42.063Z,12.85
2023-05-12T21:25:11.422Z,17.38
2023-05-12T21:27:41.508Z,16.13
2023-05-12T21:30:11.365Z,17.15
2023-05-12T21:32:39.684Z,13.52
2023-05-12T21:35:08.944Z,14.18
2023-05-12T21:37:37.154Z,12.45
2023-05-12T21:40:07.972Z,16.17
2023-05-12T21:42:36.238Z,12.50
2023-05-12T21:45:04.763Z,14.38
2023-05-12T21:47:33.229Z,13.05
2023-05-12T21:50:03.646Z,16.35
2023-05-12T21:52:32.708Z,13.02
2023-05-12T21:55:03.319Z,12.18
2023-05-12T21:57:32.951Z,15.15
2023-05-12T22:00:03.935Z,12.70
2023-05-12T22:02:37.833Z,14.10
2023-05-12T22:05:06.734Z,14.98
2023-05-12T22:07:34.838Z,12.02
2023-05-12T22:10:03.803Z,14.82
2023-05-12T22:12:33.369Z,15.60
2023-05-12T22:15:01.773Z,13.80
2023-05-12T22:17:29.882Z,17.30
2023-05-12T22:19:58.234Z,17.02
2023-05-12T22:22:26.525Z,14.20
2023-05-12T22:24:54.731Z,14.55
2023-05-12T22:27:23.127Z,15.50
2023-05-12T22:29:52.713Z,13.18
2023-05-12T22:32:20.932Z,18.60
2023-05-12T22:34:49.218Z,14.23
2023-05-12T22:37:17.314Z,15.88
2023-05-12T22:39:45.578Z,17.17
2023-05-12T22:42:13.748Z,15.43
2023-05-12T22:44:41.838Z,13.55
2023-05-12T22:47:11.540Z,16.98
2023-05-12T22:49:40.723Z,12.63
2023-05-12T22:52:09.074Z,15.40
2023-05-12T22:54:37.261Z,13.32
2023-05-12T22:57:05.796Z,13.68
2023-05-12T22:59:33.898Z,15.65
2023-05-12T23:02:02.130Z,14.70
2023-05-12T23:04:31.793Z,16.13
2023-05-12T23:06:59.968Z,16.83
2023-05-12T23:09:28.142Z,16.77
2023-05-12T23:11:56.399Z,14.55
2023-05-12T23:14:24.725Z,14.60
2023-05-12T23:16:53.015Z,16.17
2023-05-12T23:19:21.190Z,16.17
2023-05-12T23:21:51.232Z,14.52
2023-05-12T23:24:19.434Z,13.95
2023-05-12T23:26:47.633Z,13.88
2023-05-12T23:29:15.762Z,14.40
2023-05-12T23:31:44.024Z,14.85
2023-05-12T23:34:12.478Z,14.18
2023-05-12T23:36:40.630Z,15.85
2023-05-12T23:39:10.172Z,13.70
2023-05-12T23:41:38.289Z,16.33
2023-05-12T23:44:06.591Z,12.88
2023-05-12T23:46:34.693Z,14.38
2023-05-12T23:49:02.841Z,15.90
2023-05-12T23:51:31.700Z,13.90
2023-05-12T23:53:59.871Z,16.15
2023-05-12T23:56:29.454Z,15.52
2023-05-12T23:58:57.585Z,12.70
